Terminal Aerodrome Forecast
Issued by NWS

Home | Current Version | Previous Version | Text Only | Print | Product List | Glossary On
Versions: 1 2 3 4 5 6 7 8 9 10 11 12 13 14 15 16 17 18 19 20 21 22 23 24 25
000
FTUS41 KBGM 231700
TAFELM
TAF
KELM 231731Z 2318/2418 35012G20KT P6SM BKN015
      TEMPO 2318/2322 BKN021
     FM232200 31011KT P6SM BKN015 OVC060
     FM240200 30008KT P6SM OVC015
     FM241100 30009KT P6SM FEW015 SCT060=

USA.gov is the U.S. government's official web portal to all federal, state and local government web resources and services.